Time;durP1;ratioP1;P1;durP2;ratioP2;P2;SDS_P1;SDS_P2;PMS_P1;PMS_P2;Temp;Humidity;BMP_temperature;BMP_pressure;BME280_temperature;BME280_humidity;BME280_pressure;Samples;Min_cycle;Max_cycle;Signal;HPM_P1;HPM_P2
2020/12/03 00:00:59;;;;;;;92.30;46.15;;;-0.90;99.90;;;;;;5056017;28;20238;-77
2020/12/03 00:03:28;;;;;;;95.13;46.80;;;-0.90;99.90;;;;;;5056067;28;20203;-78
2020/12/03 00:05:59;;;;;;;100.05;49.45;;;-0.90;99.90;;;;;;5056093;28;20221;-78
2020/12/03 00:08:26;;;;;;;100.78;46.92;;;-0.90;99.90;;;;;;5055897;28;20278;-78
2020/12/03 00:10:52;;;;;;;107.80;49.03;;;-0.90;99.90;;;;;;5054862;28;20227;-78
2020/12/03 00:13:22;;;;;;;101.00;45.35;;;-1.00;99.90;;;;;;5055714;28;20198;-78
2020/12/03 00:15:54;;;;;;;89.93;48.60;;;-1.00;99.90;;;;;;5055674;28;20218;-78
2020/12/03 00:18:21;;;;;;;102.53;46.92;;;-0.90;99.90;;;;;;5056156;28;20209;-78
2020/12/03 00:20:48;;;;;;;94.00;48.13;;;-1.00;99.90;;;;;;5056256;28;20281;-77
2020/12/03 00:23:15;;;;;;;107.18;48.15;;;-0.90;99.90;;;;;;5056315;28;20202;-77
2020/12/03 00:25:42;;;;;;;102.70;49.10;;;-0.90;99.90;;;;;;5056288;28;20203;-77
2020/12/03 00:28:08;;;;;;;99.60;48.97;;;-0.90;99.90;;;;;;5057235;28;20527;-79
2020/12/03 00:30:35;;;;;;;96.00;48.10;;;-0.90;99.90;;;;;;5059218;28;20249;-77
2020/12/03 00:33:02;;;;;;;89.43;45.85;;;-0.90;99.90;;;;;;5056620;28;20210;-76
2020/12/03 00:35:28;;;;;;;102.55;48.65;;;-1.00;99.90;;;;;;5056250;28;20199;-77
2020/12/03 00:37:55;;;;;;;92.40;45.03;;;-0.90;99.90;;;;;;5056393;28;20207;-77
2020/12/03 00:40:22;;;;;;;96.10;48.35;;;-1.00;99.90;;;;;;5056472;28;20309;-77
2020/12/03 00:42:48;;;;;;;101.80;47.67;;;-1.00;99.90;;;;;;5057266;28;20294;-77
2020/12/03 00:45:15;;;;;;;97.38;48.10;;;-1.00;99.90;;;;;;5057040;28;20203;-78
2020/12/03 00:47:43;;;;;;;96.97;46.42;;;-1.00;99.90;;;;;;5057363;28;20214;-77
2020/12/03 00:50:12;;;;;;;95.57;43.70;;;-1.10;99.90;;;;;;5056887;28;20658;-77
2020/12/03 00:52:39;;;;;;;101.43;47.00;;;-1.00;99.90;;;;;;5056055;28;20203;-77
2020/12/03 00:55:06;;;;;;;87.20;46.38;;;-1.10;99.90;;;;;;5055823;28;20285;-77
2020/12/03 00:57:32;;;;;;;97.28;47.17;;;-1.10;99.90;;;;;;5056493;28;20227;-78
2020/12/03 00:59:58;;;;;;;104.40;46.53;;;-1.10;99.90;;;;;;5055819;28;20234;-77
2020/12/03 01:02:25;;;;;;;105.28;47.85;;;-1.10;99.90;;;;;;5055709;28;20207;-77
2020/12/03 01:04:52;;;;;;;93.53;45.30;;;-1.10;99.90;;;;;;5055500;28;20199;-78
2020/12/03 01:07:19;;;;;;;103.28;49.50;;;-1.20;99.90;;;;;;5054719;28;20190;-78
2020/12/03 01:09:45;;;;;;;107.22;49.28;;;-1.20;99.90;;;;;;5054649;28;20245;-77
2020/12/03 01:12:13;;;;;;;102.72;49.13;;;-1.20;99.90;;;;;;5054661;28;20207;-78
2020/12/03 01:14:40;;;;;;;94.40;46.03;;;-1.10;99.90;;;;;;5054210;28;20202;-77
2020/12/03 01:17:08;;;;;;;100.18;48.72;;;-1.20;99.90;;;;;;5054325;28;20273;-77
2020/12/03 01:19:35;;;;;;;98.20;48.72;;;-1.30;99.90;;;;;;5054059;28;20219;-78
2020/12/03 01:22:01;;;;;;;97.75;49.45;;;-1.20;99.90;;;;;;5054148;28;20200;-78
2020/12/03 01:24:30;;;;;;;96.30;50.10;;;-1.20;99.90;;;;;;5054203;28;20580;-78
2020/12/03 01:26:56;;;;;;;99.32;49.78;;;-1.30;99.90;;;;;;5054097;28;20278;-77
2020/12/03 01:29:24;;;;;;;94.53;46.97;;;-1.30;99.90;;;;;;5054829;28;20207;-77
2020/12/03 01:31:51;;;;;;;100.38;49.60;;;-1.10;99.90;;;;;;5054429;28;20199;-77
2020/12/03 01:34:18;;;;;;;98.45;47.67;;;-1.20;99.90;;;;;;5054004;28;20297;-78
2020/12/03 01:36:44;;;;;;;100.90;47.17;;;-1.20;99.90;;;;;;5053383;28;20218;-77
2020/12/03 01:39:11;;;;;;;98.13;47.92;;;-1.20;99.90;;;;;;5053449;28;20717;-77
2020/12/03 01:41:38;;;;;;;102.25;51.25;;;-1.20;99.90;;;;;;5054831;28;20231;-78
2020/12/03 01:44:04;;;;;;;108.90;48.58;;;-1.30;99.90;;;;;;5058740;28;20207;-77
2020/12/03 01:46:31;;;;;;;108.25;47.97;;;-1.20;99.90;;;;;;5059103;28;20223;-77
2020/12/03 01:49:03;;;;;;;97.85;47.25;;;-1.20;99.90;;;;;;5057299;28;20207;-77
2020/12/03 01:51:34;;;;;;;89.13;47.40;;;-1.20;99.90;;;;;;5054591;28;20230;-77
2020/12/03 01:54:04;;;;;;;97.90;47.83;;;-1.30;99.90;;;;;;5054665;28;20278;-78
2020/12/03 01:57:12;;;;;;;103.55;47.75;;;-1.30;99.90;;;;;;5054298;28;20209;-77
2020/12/03 01:59:43;;;;;;;108.63;47.60;;;-1.30;99.90;;;;;;5027926;28;20234;-77
2020/12/03 02:02:11;;;;;;;102.63;50.83;;;-1.30;99.90;;;;;;5053905;28;20187;-77
2020/12/03 02:04:38;;;;;;;106.43;50.85;;;-1.30;99.90;;;;;;5053958;28;20210;-77
2020/12/03 02:07:08;;;;;;;103.80;49.08;;;-1.30;99.90;;;;;;5053666;28;20205;-77
2020/12/03 02:10:02;;;;;;;100.40;50.08;;;-1.30;99.90;;;;;;5053852;28;20227;-77
2020/12/03 02:12:28;;;;;;;107.45;49.80;;;-1.30;99.90;;;;;;5053384;28;20199;-77
2020/12/03 02:14:55;;;;;;;107.63;50.85;;;-1.30;99.90;;;;;;5054012;28;20217;-77
2020/12/03 02:17:22;;;;;;;107.13;50.28;;;-1.20;99.90;;;;;;5053566;28;20229;-77
2020/12/03 02:19:55;;;;;;;110.57;49.95;;;-1.30;99.90;;;;;;5053847;28;20664;-77
2020/12/03 02:22:21;;;;;;;110.13;50.58;;;-1.30;99.90;;;;;;5053752;28;20585;-77
2020/12/03 02:24:47;;;;;;;99.95;53.05;;;-1.30;99.90;;;;;;5053902;28;20270;-78
2020/12/03 02:27:16;;;;;;;108.00;47.58;;;-1.40;99.90;;;;;;5053655;28;20699;-77
2020/12/03 02:29:43;;;;;;;103.30;51.95;;;-1.40;99.90;;;;;;5053527;28;20233;-77
2020/12/03 02:32:09;;;;;;;108.03;50.38;;;-1.40;99.90;;;;;;5053381;28;20208;-77
2020/12/03 02:34:36;;;;;;;99.22;47.83;;;-1.40;99.90;;;;;;5053040;28;20205;-77
2020/12/03 02:37:04;;;;;;;100.43;51.70;;;-1.40;99.90;;;;;;5053457;28;20223;-78
2020/12/03 02:42:07;;;;;;;111.53;51.97;;;-1.30;99.90;;;;;;5034045;28;20238;-77
2020/12/03 02:44:34;;;;;;;108.25;51.33;;;-1.30;99.90;;;;;;5035007;28;20188;-78
2020/12/03 02:47:00;;;;;;;103.20;49.67;;;-1.30;99.90;;;;;;5034197;28;20227;-77
2020/12/03 02:49:27;;;;;;;111.82;51.95;;;-1.30;99.90;;;;;;5034015;28;20235;-77
2020/12/03 02:51:53;;;;;;;110.57;50.60;;;-1.40;99.90;;;;;;5033552;28;20204;-77
2020/12/03 02:54:20;;;;;;;106.03;51.20;;;-1.40;99.90;;;;;;5033910;28;20200;-77
2020/12/03 02:56:47;;;;;;;110.00;51.28;;;-1.50;99.90;;;;;;5091685;22;20231;-79
2020/12/03 02:59:13;;;;;;;104.68;50.50;;;-1.40;99.90;;;;;;5071635;28;20293;-80
2020/12/03 03:01:40;;;;;;;104.40;50.03;;;-1.30;99.90;;;;;;5059792;28;20226;-80
2020/12/03 03:04:07;;;;;;;102.07;50.35;;;-1.30;99.90;;;;;;5058051;28;20289;-80
2020/12/03 03:06:34;;;;;;;104.45;50.28;;;-1.30;99.90;;;;;;5057669;28;20311;-79
2020/12/03 03:09:01;;;;;;;102.75;51.65;;;-1.40;99.90;;;;;;5057609;28;20190;-79
2020/12/03 03:11:32;;;;;;;114.20;53.30;;;-1.40;99.90;;;;;;5062265;28;20237;-79
2020/12/03 03:14:00;;;;;;;114.22;51.75;;;-1.40;99.90;;;;;;5069119;28;20245;-79
2020/12/03 03:16:26;;;;;;;109.38;54.35;;;-1.40;99.90;;;;;;5058966;28;20261;-78
2020/12/03 03:18:52;;;;;;;116.28;55.15;;;-1.30;99.90;;;;;;5056825;28;20298;-80
2020/12/03 03:21:19;;;;;;;119.68;53.55;;;-1.40;99.90;;;;;;5056458;28;20199;-80
2020/12/03 03:23:45;;;;;;;127.88;55.53;;;-1.40;99.90;;;;;;5057654;28;20226;-80
2020/12/03 03:26:11;;;;;;;122.55;55.63;;;-1.40;99.90;;;;;;5056831;28;20227;-80
2020/12/03 03:28:39;;;;;;;117.30;53.33;;;-1.50;99.90;;;;;;5061134;28;20262;-80
2020/12/03 03:31:05;;;;;;;112.93;54.25;;;-1.50;99.90;;;;;;5074230;28;20234;-80
2020/12/03 03:33:31;;;;;;;119.45;56.80;;;-1.40;99.90;;;;;;5072630;28;20271;-79
2020/12/03 03:35:58;;;;;;;118.38;52.85;;;-1.40;99.90;;;;;;5072543;28;20280;-80
2020/12/03 03:38:24;;;;;;;116.00;57.35;;;-1.40;99.90;;;;;;5062928;28;20643;-80
2020/12/03 03:40:50;;;;;;;123.85;56.75;;;-1.40;99.90;;;;;;5057081;28;20645;-80
2020/12/03 03:43:17;;;;;;;123.20;55.08;;;-1.40;99.90;;;;;;5055691;28;20294;-80
2020/12/03 03:45:44;;;;;;;123.75;56.97;;;-1.40;99.90;;;;;;5060417;28;20597;-80
2020/12/03 03:48:10;;;;;;;124.25;58.08;;;-1.40;99.90;;;;;;5061397;28;20253;-79
2020/12/03 03:50:46;;;;;;;124.15;57.95;;;-1.30;99.90;;;;;;5061901;28;20199;-80
2020/12/03 03:53:12;;;;;;;121.85;57.55;;;-1.30;99.90;;;;;;5060358;28;20214;-79
2020/12/03 03:55:38;;;;;;;123.43;55.60;;;-1.40;99.90;;;;;;5059300;28;20318;-79
2020/12/03 03:58:08;;;;;;;126.50;58.00;;;-1.40;99.90;;;;;;5059241;28;20559;-80
2020/12/03 04:00:39;;;;;;;154.48;61.30;;;-1.40;99.90;;;;;;5059442;28;20203;-80
2020/12/03 04:03:07;;;;;;;117.38;58.13;;;-1.40;99.90;;;;;;5059145;28;20274;-80
2020/12/03 04:05:34;;;;;;;140.65;58.60;;;-1.30;99.90;;;;;;5059570;28;20628;-80
2020/12/03 04:08:00;;;;;;;130.60;61.40;;;-1.40;99.90;;;;;;5064916;28;20218;-80
2020/12/03 04:10:26;;;;;;;128.02;57.80;;;-1.40;99.90;;;;;;5066778;28;20270;-80
2020/12/03 04:12:53;;;;;;;120.30;59.53;;;-1.40;99.90;;;;;;5065178;28;20217;-79
2020/12/03 04:15:19;;;;;;;122.13;52.95;;;-1.40;99.90;;;;;;5064356;28;20223;-79
2020/12/03 04:17:45;;;;;;;118.45;56.83;;;-1.40;99.90;;;;;;5062242;28;20222;-80
2020/12/03 04:20:15;;;;;;;122.15;56.60;;;-1.40;99.90;;;;;;5064872;28;20318;-81
2020/12/03 04:22:42;;;;;;;117.07;56.78;;;-1.40;99.90;;;;;;5065527;28;20282;-80
2020/12/03 04:25:08;;;;;;;130.45;57.25;;;-1.30;99.90;;;;;;5064720;28;20234;-80
2020/12/03 04:27:34;;;;;;;114.22;56.03;;;-1.30;99.90;;;;;;5064929;28;20203;-80
2020/12/03 04:30:01;;;;;;;112.65;56.08;;;-1.30;99.90;;;;;;5064250;28;20209;-81
2020/12/03 04:32:27;;;;;;;130.80;56.72;;;-1.30;99.90;;;;;;5064185;28;20271;-79
2020/12/03 04:34:53;;;;;;;145.18;60.78;;;-1.30;99.90;;;;;;5060970;28;20209;-79
2020/12/03 04:37:20;;;;;;;132.52;57.45;;;-1.20;99.90;;;;;;5059906;28;20226;-80
2020/12/03 04:39:47;;;;;;;129.55;55.63;;;-1.30;99.90;;;;;;5059634;28;20231;-80
2020/12/03 04:42:22;;;;;;;145.85;60.13;;;-1.30;99.90;;;;;;5059930;28;20210;-80
2020/12/03 04:44:51;;;;;;;121.47;56.40;;;-1.30;99.90;;;;;;5059073;28;20241;-80
2020/12/03 04:47:43;;;;;;;112.88;56.55;;;-1.20;99.90;;;;;;5059439;28;20205;-80
2020/12/03 04:50:20;;;;;;;122.28;58.22;;;-1.20;99.90;;;;;;5059341;28;20306;-78
2020/12/03 04:53:12;;;;;;;121.63;57.30;;;-1.00;99.90;;;;;;5058100;28;20191;-80
2020/12/03 04:55:50;;;;;;;122.22;54.85;;;-1.00;99.90;;;;;;5058410;28;20548;-79
2020/12/03 04:58:26;;;;;;;127.82;55.47;;;-1.10;99.90;;;;;;5060096;28;20179;-81
2020/12/03 05:01:00;;;;;;;121.75;54.78;;;-1.00;99.90;;;;;;5076291;28;20193;-79
2020/12/03 05:03:58;;;;;;;129.48;57.72;;;-1.00;99.90;;;;;;5078612;28;20183;-80
2020/12/03 05:06:38;;;;;;;131.50;58.67;;;-1.00;99.90;;;;;;5066329;28;20234;-80
2020/12/03 05:09:12;;;;;;;131.40;59.67;;;-1.00;99.90;;;;;;5060859;28;20507;-80
2020/12/03 05:11:40;;;;;;;136.48;58.60;;;-0.90;99.90;;;;;;5058992;28;20925;-80
2020/12/03 05:14:14;;;;;;;128.90;58.47;;;-0.90;99.90;;;;;;5058913;28;20203;-80
2020/12/03 05:16:55;;;;;;;135.83;65.23;;;-0.90;99.90;;;;;;5058137;28;20458;-80
2020/12/03 05:19:32;;;;;;;130.25;61.53;;;-0.80;99.90;;;;;;5072945;28;20454;-80
2020/12/03 05:22:08;;;;;;;130.55;59.58;;;-0.80;99.90;;;;;;5070546;28;20246;-80
2020/12/03 05:24:35;;;;;;;105.82;53.72;;;-0.80;99.90;;;;;;5062755;28;20290;-80
2020/12/03 05:27:02;;;;;;;115.43;56.55;;;-0.80;99.90;;;;;;5060338;28;20439;-80
2020/12/03 05:29:28;;;;;;;119.93;56.80;;;-0.80;99.90;;;;;;5068642;28;20266;-79
2020/12/03 05:31:55;;;;;;;113.72;54.88;;;-0.70;99.90;;;;;;5060972;28;20267;-81
2020/12/03 05:34:24;;;;;;;121.15;54.30;;;-0.80;99.90;;;;;;5057381;28;20620;-80
2020/12/03 05:37:02;;;;;;;121.68;56.13;;;-0.70;99.90;;;;;;5056995;28;20317;-79
2020/12/03 05:39:30;;;;;;;116.57;50.80;;;-0.80;99.90;;;;;;5057463;28;20223;-78
2020/12/03 05:42:01;;;;;;;120.72;58.08;;;-0.80;99.90;;;;;;5057662;28;20531;-78
2020/12/03 05:44:39;;;;;;;132.38;62.75;;;-0.70;99.90;;;;;;5059507;28;20530;-79
2020/12/03 05:47:15;;;;;;;127.20;62.90;;;-0.70;99.90;;;;;;5060967;28;20432;-78
2020/12/03 05:49:42;;;;;;;121.18;56.95;;;-0.70;99.90;;;;;;5069463;28;20611;-79
2020/12/03 05:52:18;;;;;;;112.03;52.08;;;-0.80;99.90;;;;;;5069263;28;20207;-79
2020/12/03 05:55:00;;;;;;;116.78;54.55;;;-0.80;99.90;;;;;;5063037;28;20289;-81
2020/12/03 05:57:30;;;;;;;104.80;51.90;;;-0.80;99.90;;;;;;5059219;28;20223;-79
2020/12/03 06:00:10;;;;;;;106.70;52.65;;;-0.80;99.90;;;;;;5059010;28;20290;-80
2020/12/03 06:02:46;;;;;;;129.25;56.28;;;-0.80;99.90;;;;;;5058072;28;20214;-81
2020/12/03 06:05:19;;;;;;;119.47;51.78;;;-0.80;99.90;;;;;;5057130;28;20346;-81
2020/12/03 06:07:59;;;;;;;112.22;53.17;;;-0.80;99.90;;;;;;5058599;28;20251;-80
2020/12/03 06:10:52;;;;;;;118.60;54.75;;;-0.70;99.90;;;;;;5071860;28;20219;-80
2020/12/03 06:13:35;;;;;;;113.53;52.08;;;-0.80;99.90;;;;;;5067673;28;20251;-80
2020/12/03 06:16:03;;;;;;;116.43;51.53;;;-0.80;99.90;;;;;;5057756;28;20277;-79
2020/12/03 06:18:47;;;;;;;121.25;51.20;;;-0.80;99.90;;;;;;5056980;28;20606;-80
2020/12/03 06:21:36;;;;;;;121.80;58.83;;;-0.70;99.90;;;;;;5057045;28;20436;-79
2020/12/03 06:24:25;;;;;;;122.47;56.15;;;-0.50;99.90;;;;;;5058122;28;20313;-80
2020/12/03 06:27:23;;;;;;;113.55;51.70;;;-0.60;99.90;;;;;;5056962;28;20313;-79
2020/12/03 06:30:03;;;;;;;103.70;50.95;;;-0.60;99.90;;;;;;5057379;28;20213;-79
2020/12/03 06:32:55;;;;;;;101.10;50.13;;;-0.60;99.90;;;;;;5057802;28;20258;-80
2020/12/03 06:35:32;;;;;;;122.95;52.83;;;-0.60;99.90;;;;;;5056061;28;20239;-80
2020/12/03 06:38:06;;;;;;;113.20;50.58;;;-0.60;99.90;;;;;;5056409;28;20203;-80
2020/12/03 06:40:36;;;;;;;109.85;50.85;;;-0.70;99.90;;;;;;5056720;28;20199;-80
2020/12/03 06:43:16;;;;;;;117.68;52.20;;;-0.70;99.90;;;;;;5056458;28;20191;-80
2020/12/03 06:45:51;;;;;;;100.07;50.35;;;-0.60;99.90;;;;;;5057090;28;20680;-80
2020/12/03 06:48:44;;;;;;;106.45;51.13;;;-0.60;99.90;;;;;;5057576;28;20277;-80
2020/12/03 06:51:45;;;;;;;128.68;53.85;;;-0.60;99.90;;;;;;5058445;28;20187;-79
2020/12/03 06:54:34;;;;;;;106.90;52.72;;;-0.50;99.90;;;;;;5058871;28;20684;-79
2020/12/03 06:57:39;;;;;;;115.32;48.33;;;-0.70;99.90;;;;;;5069173;28;20700;-80
2020/12/03 07:00:42;;;;;;;93.50;46.45;;;-0.70;99.90;;;;;;5068662;28;20221;-79
2020/12/03 07:03:56;;;;;;;107.40;52.25;;;-0.70;99.90;;;;;;5070948;28;20231;-80
2020/12/03 07:06:56;;;;;;;113.47;51.25;;;-0.60;99.90;;;;;;5059930;28;20219;-80
2020/12/03 07:10:10;;;;;;;109.03;50.60;;;-0.60;99.90;;;;;;5057822;28;20195;-80
2020/12/03 07:13:11;;;;;;;112.35;50.35;;;-0.60;99.90;;;;;;5060577;28;20274;-80
2020/12/03 07:16:04;;;;;;;96.05;49.03;;;-0.60;99.90;;;;;;5060695;28;20221;-80
2020/12/03 07:19:19;;;;;;;106.55;50.80;;;-0.70;99.90;;;;;;5059670;28;20640;-79
2020/12/03 07:22:11;;;;;;;106.93;52.35;;;-0.60;99.90;;;;;;5062973;28;20608;-81
2020/12/03 07:24:40;;;;;;;108.80;48.15;;;-0.70;99.90;;;;;;5062566;28;20189;-78
2020/12/03 07:27:48;;;;;;;108.20;48.22;;;-0.60;99.90;;;;;;5075725;28;20183;-80
2020/12/03 07:30:34;;;;;;;96.15;49.30;;;-0.60;99.90;;;;;;5078726;28;20206;-79
2020/12/03 07:33:05;;;;;;;100.35;48.28;;;-0.50;99.90;;;;;;5076726;28;20187;-79
2020/12/03 07:35:41;;;;;;;109.47;49.90;;;-0.60;99.90;;;;;;5070059;28;20730;-81
2020/12/03 07:38:18;;;;;;;104.28;46.72;;;-0.40;99.90;;;;;;5064398;28;20210;-80
2020/12/03 07:40:44;;;;;;;112.80;48.63;;;-0.30;99.90;;;;;;5062170;28;20273;-80
2020/12/03 07:43:19;;;;;;;105.50;46.72;;;-0.30;99.90;;;;;;5060815;28;20700;-80
2020/12/03 07:45:48;;;;;;;98.47;48.17;;;-0.40;99.90;;;;;;5061729;28;20225;-80
2020/12/03 07:48:20;;;;;;;92.25;45.58;;;-0.40;99.90;;;;;;5072333;28;20195;-80
2020/12/03 07:51:09;;;;;;;105.18;47.53;;;-0.40;99.90;;;;;;5079503;28;20234;-80
2020/12/03 07:53:37;;;;;;;107.60;47.00;;;-0.50;99.90;;;;;;5073485;28;20171;-79
2020/12/03 07:56:38;;;;;;;93.15;46.42;;;-0.40;99.90;;;;;;5079651;28;20269;-80
2020/12/03 07:59:30;;;;;;;112.13;48.30;;;-0.40;99.90;;;;;;4986363;28;20186;-79
2020/12/03 08:01:58;;;;;;;101.22;47.67;;;-0.40;99.90;;;;;;5058925;28;20209;-81
2020/12/03 08:04:32;;;;;;;99.55;49.38;;;-0.40;99.90;;;;;;5060604;28;20238;-80
2020/12/03 08:07:33;;;;;;;100.25;45.55;;;-0.40;99.90;;;;;;5060698;28;20691;-80
2020/12/03 08:09:59;;;;;;;103.85;46.88;;;-0.30;99.90;;;;;;5060833;28;20183;-81
2020/12/03 08:12:28;;;;;;;85.50;44.05;;;-0.30;99.90;;;;;;5061656;28;20203;-81
2020/12/03 08:14:55;;;;;;;107.63;45.65;;;-0.20;99.90;;;;;;5059804;28;20230;-80
2020/12/03 08:17:48;;;;;;;89.72;44.53;;;-0.10;99.90;;;;;;5059350;28;20314;-79
2020/12/03 08:20:42;;;;;;;100.28;45.38;;;-0.10;99.90;;;;;;5013125;28;20207;-80
2020/12/03 08:23:13;;;;;;;91.47;44.22;;;-0.20;99.90;;;;;;5059923;28;20190;-79
2020/12/03 08:25:45;;;;;;;91.03;45.83;;;-0.20;99.90;;;;;;5059459;28;20269;-79
2020/12/03 08:28:20;;;;;;;92.70;42.80;;;-0.10;99.90;;;;;;5060432;28;20202;-80
2020/12/03 08:30:51;;;;;;;83.28;42.15;;;-0.20;99.90;;;;;;5061532;28;20258;-78
2020/12/03 08:33:26;;;;;;;96.97;45.80;;;0.00;99.90;;;;;;5060628;28;20191;-79
2020/12/03 08:35:56;;;;;;;87.15;44.03;;;-0.20;99.90;;;;;;5063624;28;20219;-80
2020/12/03 08:38:26;;;;;;;85.72;44.92;;;-0.30;99.90;;;;;;5061218;28;20203;-81
2020/12/03 08:40:54;;;;;;;86.63;43.83;;;-0.20;99.90;;;;;;5061295;28;20188;-81
2020/12/03 08:43:22;;;;;;;89.45;41.92;;;-0.20;99.90;;;;;;5068370;28;20211;-79
2020/12/03 08:46:00;;;;;;;88.13;43.60;;;-0.10;99.90;;;;;;5067418;28;20636;-79
2020/12/03 08:48:30;;;;;;;84.90;43.38;;;-0.20;99.90;;;;;;5064979;28;20183;-80
2020/12/03 08:50:59;;;;;;;95.80;45.83;;;-0.10;99.90;;;;;;5062813;28;20192;-81
2020/12/03 08:53:28;;;;;;;84.68;42.65;;;-0.10;99.90;;;;;;5060973;28;20263;-80
2020/12/03 08:55:57;;;;;;;89.13;43.90;;;-0.10;99.90;;;;;;5081727;22;20230;-77
2020/12/03 08:58:25;;;;;;;83.30;42.30;;;0.00;99.90;;;;;;5054010;28;20227;-77
2020/12/03 09:00:54;;;;;;;90.63;43.83;;;0.00;99.90;;;;;;5054482;28;20563;-77
2020/12/03 09:03:22;;;;;;;93.68;43.03;;;0.10;99.90;;;;;;5054187;28;20640;-77
2020/12/03 09:05:50;;;;;;;81.97;41.03;;;0.00;99.90;;;;;;5054163;28;20234;-77
2020/12/03 09:08:19;;;;;;;77.93;40.10;;;0.10;99.90;;;;;;5054109;28;20187;-77
2020/12/03 09:10:48;;;;;;;82.15;38.25;;;0.20;99.90;;;;;;5054890;28;20250;-78
2020/12/03 09:13:19;;;;;;;83.82;40.35;;;0.30;99.90;;;;;;5055475;28;20616;-78
2020/12/03 09:15:47;;;;;;;83.80;39.80;;;0.30;99.90;;;;;;5055903;28;20261;-77
2020/12/03 09:18:14;;;;;;;83.25;41.00;;;0.30;99.90;;;;;;5056049;28;20221;-78
2020/12/03 09:20:47;;;;;;;81.75;39.30;;;0.20;99.90;;;;;;5056170;28;20298;-78
2020/12/03 09:23:18;;;;;;;75.28;41.13;;;0.10;99.90;;;;;;5058570;28;20271;-78
2020/12/03 09:25:45;;;;;;;76.28;39.65;;;0.10;99.90;;;;;;5057810;28;20567;-77
2020/12/03 09:28:11;;;;;;;73.20;40.10;;;0.20;99.90;;;;;;5058538;28;20211;-79
2020/12/03 09:30:44;;;;;;;75.43;38.90;;;0.20;99.90;;;;;;5059160;28;20205;-78
2020/12/03 09:33:14;;;;;;;76.68;38.13;;;0.30;99.90;;;;;;5058645;28;20184;-78
2020/12/03 09:35:42;;;;;;;67.65;37.67;;;0.20;99.90;;;;;;5057886;28;20736;-78
2020/12/03 09:38:10;;;;;;;71.95;38.20;;;0.30;99.90;;;;;;5056136;28;20329;-78
2020/12/03 09:40:39;;;;;;;78.07;39.90;;;0.30;99.90;;;;;;5059060;28;20203;-78
2020/12/03 09:43:05;;;;;;;86.03;40.63;;;0.30;99.90;;;;;;5057391;28;20210;-78
2020/12/03 09:45:36;;;;;;;70.15;36.47;;;0.30;99.90;;;;;;5055772;28;20233;-76
2020/12/03 09:48:04;;;;;;;80.90;37.78;;;0.40;99.90;;;;;;5053100;28;20198;-77
2020/12/03 09:50:30;;;;;;;70.80;36.53;;;0.40;99.90;;;;;;5053684;28;20199;-77
2020/12/03 09:52:57;;;;;;;79.20;39.25;;;0.40;99.90;;;;;;5054119;28;20203;-77
2020/12/03 09:55:23;;;;;;;67.60;35.95;;;0.40;99.90;;;;;;5053680;28;20243;-78
2020/12/03 09:57:55;;;;;;;68.38;37.97;;;0.50;99.90;;;;;;5057213;28;20211;-78
2020/12/03 10:00:28;;;;;;;65.88;36.22;;;0.60;99.90;;;;;;5055557;28;20564;-78
2020/12/03 10:03:24;;;;;;;73.00;36.78;;;0.70;99.90;;;;;;5053360;28;20191;-78
2020/12/03 10:06:08;;;;;;;68.20;36.08;;;0.50;99.90;;;;;;5052117;28;20222;-77
2020/12/03 10:09:03;;;;;;;61.72;34.75;;;0.50;99.90;;;;;;5051990;28;20180;-77
2020/12/03 10:12:04;;;;;;;67.15;36.47;;;0.70;99.90;;;;;;5054067;28;20192;-78
2020/12/03 10:14:54;;;;;;;73.88;35.63;;;0.70;99.90;;;;;;5053733;28;20183;-77
2020/12/03 10:17:22;;;;;;;73.70;41.03;;;0.80;99.90;;;;;;5053650;28;20314;-77
2020/12/03 10:19:50;;;;;;;75.32;35.65;;;0.80;99.90;;;;;;5054175;28;20213;-77
2020/12/03 10:22:29;;;;;;;69.72;36.25;;;0.70;99.90;;;;;;5056046;28;20199;-77
2020/12/03 10:25:03;;;;;;;64.95;36.45;;;0.90;99.90;;;;;;5057189;28;20183;-77
2020/12/03 10:27:39;;;;;;;73.03;34.88;;;0.80;99.90;;;;;;5054211;28;20241;-77
2020/12/03 10:30:09;;;;;;;68.10;34.80;;;0.90;99.90;;;;;;5055507;28;20187;-77
2020/12/03 10:32:39;;;;;;;65.03;35.63;;;0.90;99.90;;;;;;5053859;28;20373;-78
2020/12/03 10:35:06;;;;;;;66.07;34.88;;;0.90;99.90;;;;;;5054252;28;20286;-77
2020/12/03 10:37:37;;;;;;;67.35;34.42;;;0.80;99.90;;;;;;5053385;28;20230;-77
2020/12/03 10:40:09;;;;;;;74.22;35.80;;;0.90;99.90;;;;;;5053511;28;20213;-77
2020/12/03 10:42:39;;;;;;;66.80;33.97;;;0.80;99.90;;;;;;5053510;28;20198;-77
2020/12/03 10:45:13;;;;;;;63.67;33.88;;;0.90;99.90;;;;;;5053483;28;20298;-76
2020/12/03 10:47:45;;;;;;;70.07;36.20;;;0.90;99.90;;;;;;5053106;28;20256;-77
2020/12/03 10:50:16;;;;;;;67.95;34.58;;;0.90;99.90;;;;;;5055193;28;20191;-77
2020/12/03 10:52:43;;;;;;;69.07;36.30;;;0.90;99.90;;;;;;5052903;28;20194;-77
2020/12/03 10:55:10;;;;;;;66.72;35.75;;;0.90;99.90;;;;;;5055204;28;20193;-77
2020/12/03 10:57:41;;;;;;;59.45;34.05;;;0.90;99.90;;;;;;5057594;28;20583;-77
2020/12/03 11:00:11;;;;;;;68.80;36.40;;;0.80;99.90;;;;;;5057260;28;20187;-77
2020/12/03 11:02:41;;;;;;;62.42;33.22;;;1.00;99.90;;;;;;5057461;28;20241;-77
2020/12/03 11:05:09;;;;;;;69.93;38.75;;;1.00;99.90;;;;;;5057464;28;20187;-77
2020/12/03 11:07:37;;;;;;;62.30;32.22;;;0.90;99.90;;;;;;5057375;28;20183;-77
2020/12/03 11:10:05;;;;;;;62.88;33.67;;;1.00;99.90;;;;;;5057274;28;20187;-77
2020/12/03 11:12:32;;;;;;;65.05;34.22;;;1.00;99.90;;;;;;5058308;28;20257;-77
2020/12/03 11:15:03;;;;;;;70.57;34.28;;;1.00;99.90;;;;;;5057716;28;20190;-77
2020/12/03 11:18:03;;;;;;;59.67;34.50;;;1.10;99.90;;;;;;5057187;28;20687;-77
2020/12/03 11:20:32;;;;;;;62.85;32.33;;;1.00;99.90;;;;;;5057205;28;20199;-77
2020/12/03 11:23:03;;;;;;;61.63;31.40;;;1.10;99.90;;;;;;5057567;28;20191;-77
2020/12/03 11:25:30;;;;;;;57.35;34.00;;;1.00;99.90;;;;;;5057422;28;20566;-77
2020/12/03 11:28:00;;;;;;;63.97;34.10;;;1.00;99.90;;;;;;5056969;28;20190;-76
2020/12/03 11:30:28;;;;;;;65.18;36.13;;;1.10;99.90;;;;;;5056251;28;20187;-76
2020/12/03 11:32:56;;;;;;;61.35;32.80;;;1.10;99.90;;;;;;5056235;28;20191;-77
2020/12/03 11:35:28;;;;;;;67.95;34.22;;;1.10;99.90;;;;;;5056292;28;20234;-77
2020/12/03 11:37:58;;;;;;;56.75;31.63;;;1.10;99.90;;;;;;5056138;28;20702;-77
2020/12/03 11:40:33;;;;;;;65.50;32.85;;;1.30;99.90;;;;;;5056736;28;20269;-76
2020/12/03 11:43:18;;;;;;;52.83;30.70;;;1.40;99.90;;;;;;5055735;28;20241;-76
2020/12/03 11:48:36;;;;;;;57.25;30.30;;;1.40;99.90;;;;;;5056357;28;20559;-77
2020/12/03 11:51:03;;;;;;;56.00;31.15;;;1.40;99.90;;;;;;5056538;28;20188;-77
2020/12/03 11:53:31;;;;;;;56.47;31.75;;;1.40;99.90;;;;;;5057178;28;20648;-78
2020/12/03 11:55:57;;;;;;;57.33;30.92;;;1.50;99.90;;;;;;5056213;28;20336;-77
2020/12/03 11:58:29;;;;;;;51.92;29.80;;;1.40;99.90;;;;;;5056004;28;20231;-77
2020/12/03 12:01:11;;;;;;;51.47;30.30;;;1.50;99.90;;;;;;5055823;28;20257;-77
2020/12/03 12:03:41;;;;;;;59.38;30.15;;;1.40;99.90;;;;;;5057615;28;20556;-77
2020/12/03 12:06:13;;;;;;;59.97;31.27;;;1.40;99.90;;;;;;5055863;28;20640;-79
2020/12/03 12:08:44;;;;;;;58.85;30.60;;;1.40;99.90;;;;;;5056067;28;20186;-77
2020/12/03 12:11:15;;;;;;;58.35;32.38;;;1.40;99.90;;;;;;5057825;28;20689;-76
2020/12/03 12:13:41;;;;;;;53.38;31.17;;;1.40;99.90;;;;;;5056524;28;20218;-77
2020/12/03 12:16:11;;;;;;;57.17;32.88;;;1.30;99.90;;;;;;5056154;28;20285;-77
2020/12/03 12:18:39;;;;;;;54.47;30.38;;;1.30;99.90;;;;;;5058284;28;20721;-79
2020/12/03 12:21:07;;;;;;;57.03;31.63;;;1.40;99.90;;;;;;5055198;28;20198;-77
2020/12/03 12:23:33;;;;;;;62.15;33.60;;;1.40;99.90;;;;;;5055012;28;20207;-77
2020/12/03 12:26:00;;;;;;;54.55;27.75;;;1.50;99.90;;;;;;5056861;28;20653;-77
2020/12/03 12:28:26;;;;;;;65.35;31.38;;;1.60;99.90;;;;;;5055606;28;20203;-78
2020/12/03 12:30:53;;;;;;;51.08;28.00;;;1.60;99.90;;;;;;5057702;28;20347;-78
2020/12/03 12:33:19;;;;;;;47.47;27.27;;;1.70;99.90;;;;;;5057070;28;20651;-78
2020/12/03 12:35:47;;;;;;;52.63;29.38;;;1.70;99.90;;;;;;5057152;28;20300;-77
2020/12/03 12:38:14;;;;;;;55.50;29.55;;;1.60;99.90;;;;;;5057020;28;20322;-77
2020/12/03 12:40:41;;;;;;;49.15;28.27;;;1.50;99.90;;;;;;5055991;28;20184;-78
2020/12/03 12:43:07;;;;;;;56.28;28.75;;;1.50;99.90;;;;;;5055911;28;20678;-77
2020/12/03 12:45:34;;;;;;;49.65;26.50;;;1.50;99.90;;;;;;5057247;28;20275;-78
2020/12/03 12:48:00;;;;;;;51.33;27.90;;;1.60;99.90;;;;;;5054671;28;20285;-77
2020/12/03 12:50:26;;;;;;;50.72;27.70;;;1.60;99.90;;;;;;5054573;28;20197;-78
2020/12/03 12:52:54;;;;;;;53.80;28.80;;;1.60;99.90;;;;;;5056851;28;20206;-77
2020/12/03 12:55:20;;;;;;;60.15;31.20;;;1.70;99.90;;;;;;5055370;28;20209;-78
2020/12/03 12:57:46;;;;;;;49.75;29.20;;;1.60;99.90;;;;;;5055348;28;20211;-77